Time;durP1;ratioP1;P1;durP2;ratioP2;P2;SDS_P1;SDS_P2;PMS_P1;PMS_P2;Temp;Humidity;BMP_temperature;BMP_pressure;BME280_temperature;BME280_humidity;BME280_pressure;Samples;Min_cycle;Max_cycle;Signal;HPM_P1;HPM_P2
2020/12/21 00:02:16;;;;;;;26.52;16.30;;;6.20;99.90;;;;;;5010719;28;20065;-86
2020/12/21 00:04:42;;;;;;;31.75;16.67;;;6.20;99.90;;;;;;5009930;28;20075;-86
2020/12/21 00:07:08;;;;;;;27.75;16.77;;;6.20;99.90;;;;;;5010945;28;20026;-84
2020/12/21 00:09:34;;;;;;;28.25;17.20;;;6.10;99.90;;;;;;5015125;28;20034;-84
2020/12/21 00:11:59;;;;;;;29.73;16.83;;;5.90;99.90;;;;;;5015829;28;20026;-84
2020/12/21 00:14:25;;;;;;;41.10;22.42;;;5.90;99.90;;;;;;5016320;28;20032;-86
2020/12/21 00:16:52;;;;;;;58.60;30.27;;;6.50;99.90;;;;;;5015007;28;20428;-84
2020/12/21 00:19:21;;;;;;;54.78;29.23;;;6.70;99.90;;;;;;5000031;28;20043;-86
2020/12/21 00:21:49;;;;;;;31.40;19.05;;;6.70;99.90;;;;;;4996441;28;20704;-85
2020/12/21 00:24:15;;;;;;;31.73;17.52;;;6.50;99.90;;;;;;4996029;28;20084;-84
2020/12/21 00:26:50;;;;;;;35.67;17.90;;;6.40;99.90;;;;;;4994548;28;20022;-85
2020/12/21 00:29:17;;;;;;;32.85;17.65;;;6.20;99.90;;;;;;4994522;28;20029;-84
2020/12/21 00:31:44;;;;;;;33.47;17.75;;;6.10;99.90;;;;;;4995652;28;20081;-85
2020/12/21 00:34:10;;;;;;;34.20;18.02;;;6.00;99.90;;;;;;4993861;28;20429;-85
2020/12/21 00:36:40;;;;;;;32.17;17.90;;;5.80;99.90;;;;;;4994766;28;20034;-86
2020/12/21 00:39:06;;;;;;;29.58;17.88;;;5.60;99.90;;;;;;4994425;28;20038;-85
2020/12/21 00:41:32;;;;;;;31.15;17.08;;;5.70;99.90;;;;;;4994485;28;20035;-83
2020/12/21 00:43:58;;;;;;;34.28;18.52;;;5.60;99.90;;;;;;4995873;28;20378;-86
2020/12/21 00:46:26;;;;;;;34.78;18.60;;;5.50;99.90;;;;;;4995334;28;20468;-85
2020/12/21 00:48:53;;;;;;;32.40;17.42;;;5.60;99.90;;;;;;4995384;28;20026;-85
2020/12/21 00:51:45;;;;;;;37.20;18.67;;;5.60;99.90;;;;;;5072921;23;20054;-83
2020/12/21 00:54:11;;;;;;;35.75;18.83;;;5.60;99.90;;;;;;4997588;28;20121;-84
2020/12/21 00:56:37;;;;;;;33.33;18.73;;;5.60;99.90;;;;;;5169003;23;20461;-84
2020/12/21 00:59:02;;;;;;;36.13;17.83;;;5.70;99.90;;;;;;4997194;28;20520;-85
2020/12/21 01:02:09;;;;;;;37.65;18.52;;;5.60;99.90;;;;;;4996512;28;20469;-84
2020/12/21 01:04:34;;;;;;;37.53;18.08;;;5.60;99.90;;;;;;4997110;28;20105;-84
2020/12/21 01:07:00;;;;;;;33.47;18.10;;;5.60;99.90;;;;;;5015051;28;20105;-85
2020/12/21 01:09:26;;;;;;;33.30;18.98;;;5.50;99.90;;;;;;4997759;28;20519;-86
2020/12/21 01:11:53;;;;;;;39.58;18.98;;;5.60;99.90;;;;;;4997516;28;20040;-83
2020/12/21 01:14:19;;;;;;;34.42;18.88;;;5.60;99.90;;;;;;5026943;28;20037;-87
2020/12/21 01:16:45;;;;;;;33.78;17.60;;;5.60;99.90;;;;;;5034827;28;20021;-86
2020/12/21 01:19:10;;;;;;;39.50;18.75;;;5.70;99.90;;;;;;5034249;28;20056;-86
2020/12/21 01:21:36;;;;;;;31.98;17.73;;;5.80;99.90;;;;;;5016437;28;20489;-87
2020/12/21 01:24:02;;;;;;;35.80;17.00;;;5.70;99.90;;;;;;5017122;28;20307;-87
2020/12/21 01:26:30;;;;;;;32.42;17.95;;;5.70;99.90;;;;;;5034988;28;20033;-85
2020/12/21 01:28:56;;;;;;;34.80;19.55;;;5.70;99.90;;;;;;5016298;28;20029;-85
2020/12/21 01:31:23;;;;;;;39.50;19.67;;;5.60;99.90;;;;;;5016342;28;20464;-83
2020/12/21 01:33:50;;;;;;;33.25;18.05;;;5.70;99.90;;;;;;5012597;28;20466;-83
2020/12/21 01:36:18;;;;;;;39.10;19.98;;;5.80;99.90;;;;;;4997106;28;20037;-87
2020/12/21 01:38:44;;;;;;;35.13;18.45;;;5.80;99.90;;;;;;5014300;28;20033;-86
2020/12/21 01:41:10;;;;;;;34.97;17.75;;;5.70;99.90;;;;;;5014943;28;20389;-86
2020/12/21 01:43:35;;;;;;;35.20;17.88;;;5.90;99.90;;;;;;4996764;28;20026;-84
2020/12/21 01:46:09;;;;;;;39.80;21.45;;;5.70;99.90;;;;;;4997267;28;20061;-85
2020/12/21 01:48:36;;;;;;;35.55;19.17;;;5.90;99.90;;;;;;4996533;28;20390;-84
2020/12/21 01:51:05;;;;;;;32.55;16.70;;;5.70;99.90;;;;;;5013745;28;20029;-85
2020/12/21 01:53:36;;;;;;;36.58;18.88;;;5.80;99.90;;;;;;4996655;28;20025;-87
2020/12/21 01:56:05;;;;;;;;;;;5.70;99.90;;;;;;4997163;28;20572;-89
2020/12/21 01:58:32;;;;;;;36.55;19.10;;;5.70;99.90;;;;;;5013452;28;19906;-90
2020/12/21 02:01:00;;;;;;;37.28;19.30;;;5.70;99.90;;;;;;4996823;28;20038;-86
2020/12/21 02:03:27;;;;;;;38.97;19.45;;;5.70;99.90;;;;;;4997003;28;20056;-87
2020/12/21 02:05:52;;;;;;;36.80;18.67;;;5.80;99.90;;;;;;4996792;28;20026;-86
2020/12/21 02:08:18;;;;;;;37.38;19.02;;;5.60;99.90;;;;;;5014360;28;20033;-89
2020/12/21 02:10:44;;;;;;;39.00;18.60;;;5.60;99.90;;;;;;4997160;28;20045;-84
2020/12/21 02:13:10;;;;;;;41.00;20.85;;;5.60;99.90;;;;;;4996848;28;20029;-84
2020/12/21 02:15:37;;;;;;;35.78;18.20;;;5.60;99.90;;;;;;4997098;28;20026;-89
2020/12/21 02:18:02;;;;;;;40.13;19.00;;;5.50;99.90;;;;;;4993455;28;20055;-85
2020/12/21 02:20:31;;;;;;;40.28;19.63;;;5.50;99.90;;;;;;4977480;28;20034;-87
2020/12/21 02:22:57;;;;;;;35.17;17.83;;;5.60;99.90;;;;;;4977809;28;20028;-88
2020/12/21 02:25:23;;;;;;;44.47;20.50;;;5.60;99.90;;;;;;4994926;28;20628;-90
2020/12/21 02:27:49;;;;;;;40.67;20.45;;;5.70;99.90;;;;;;4995231;28;20034;-88
2020/12/21 02:30:15;;;;;;;36.50;20.90;;;5.60;99.90;;;;;;4994306;28;20088;-91
2020/12/21 02:32:41;;;;;;;36.00;17.90;;;5.60;99.90;;;;;;4977689;28;20470;-91
2020/12/21 02:35:07;;;;;;;33.60;17.67;;;5.60;99.90;;;;;;4976943;28;20030;-87
2020/12/21 02:37:34;;;;;;;37.15;19.58;;;5.60;99.90;;;;;;4976720;28;20374;-91
2020/12/21 02:40:01;;;;;;;34.97;18.35;;;5.60;99.90;;;;;;4994608;28;20054;-92
2020/12/21 02:42:31;;;;;;;38.10;18.50;;;5.60;99.90;;;;;;4995483;28;20053;-90
2020/12/21 02:44:56;;;;;;;39.65;20.23;;;5.50;99.90;;;;;;4977870;28;20073;-91
2020/12/21 02:47:22;;;;;;;37.55;18.77;;;5.70;99.90;;;;;;4994582;28;20054;-87
2020/12/21 02:49:48;;;;;;;34.72;18.10;;;5.70;99.90;;;;;;4977403;28;20091;-88
2020/12/21 02:52:14;;;;;;;36.70;17.98;;;5.80;99.90;;;;;;4994637;28;20042;-90
2020/12/21 02:54:45;;;;;;;35.92;18.77;;;5.60;99.90;;;;;;4994853;28;20090;-90
2020/12/21 02:57:12;;;;;;;40.03;19.23;;;5.50;99.90;;;;;;4994498;28;20058;-91
2020/12/21 02:59:37;;;;;;;35.03;17.05;;;5.60;99.90;;;;;;4994801;28;20507;-93
2020/12/21 03:02:03;;;;;;;31.17;16.75;;;5.70;99.90;;;;;;4977682;28;20022;-92
2020/12/21 03:04:29;;;;;;;35.92;17.10;;;5.40;99.90;;;;;;4977724;28;20026;-92
2020/12/21 03:09:30;;;;;;;32.47;16.80;;;5.30;99.90;;;;;;5103436;23;20042;-86
2020/12/21 03:11:59;;;;;;;33.35;18.20;;;5.30;99.90;;;;;;4996817;28;20036;-92
2020/12/21 03:14:25;;;;;;;33.35;17.35;;;5.30;99.90;;;;;;4996866;28;20030;-90
2020/12/21 03:16:53;;;;;;;31.80;16.67;;;5.40;99.90;;;;;;4996732;28;20022;-92
2020/12/21 03:19:19;;;;;;;37.70;17.80;;;5.30;99.90;;;;;;5014047;28;20030;-87
2020/12/21 03:21:45;;;;;;;31.67;17.60;;;5.40;99.90;;;;;;4996328;28;20628;-88
2020/12/21 03:24:11;;;;;;;33.28;17.58;;;5.40;99.90;;;;;;5013296;28;20034;-84
2020/12/21 03:26:37;;;;;;;27.38;15.90;;;5.50;99.90;;;;;;4996400;28;20021;-87
2020/12/21 03:29:02;;;;;;;35.85;16.98;;;5.50;99.90;;;;;;4996274;28;20116;-85
2020/12/21 03:31:28;;;;;;;31.85;17.17;;;5.60;99.90;;;;;;4996479;28;20025;-91
2020/12/21 03:33:54;;;;;;;30.15;16.50;;;5.60;99.90;;;;;;4995748;28;20040;-87
2020/12/21 03:36:21;;;;;;;29.30;16.05;;;5.60;99.90;;;;;;4995999;28;20101;-89
2020/12/21 03:39:07;;;;;;;31.65;16.83;;;5.80;99.90;;;;;;4995165;28;20026;-89
2020/12/21 03:41:33;;;;;;;34.15;18.25;;;5.50;99.90;;;;;;4994267;28;20116;-85
2020/12/21 03:43:59;;;;;;;32.38;16.02;;;5.30;99.90;;;;;;4995249;28;20022;-84
2020/12/21 03:46:25;;;;;;;28.52;16.00;;;5.30;99.90;;;;;;4994951;28;20026;-86
2020/12/21 03:48:51;;;;;;;33.28;17.27;;;5.30;99.90;;;;;;5012298;28;20022;-86
2020/12/21 03:51:16;;;;;;;35.10;16.67;;;5.30;99.90;;;;;;4994868;28;20022;-85
2020/12/21 03:53:42;;;;;;;34.55;16.70;;;5.30;99.90;;;;;;5012755;28;20022;-85
2020/12/21 03:56:08;;;;;;;32.42;16.13;;;5.30;99.90;;;;;;4994457;28;20100;-85
2020/12/21 03:58:34;;;;;;;34.35;15.60;;;5.50;99.90;;;;;;4994628;28;20057;-86
2020/12/21 04:01:00;;;;;;;33.95;16.92;;;5.30;99.90;;;;;;5012267;28;20065;-83
2020/12/21 04:06:02;;;;;;;26.75;15.20;;;5.30;99.90;;;;;;5519063;23;20053;-84
2020/12/21 04:08:27;;;;;;;32.53;17.08;;;5.40;99.90;;;;;;4995486;28;20026;-91
2020/12/21 04:10:53;;;;;;;33.42;16.10;;;5.40;99.90;;;;;;5012740;28;20018;-89
2020/12/21 04:13:19;;;;;;;30.42;16.27;;;5.40;99.90;;;;;;4995450;28;20519;-89
2020/12/21 04:15:45;;;;;;;27.45;16.30;;;5.40;99.90;;;;;;4995589;28;20404;-82
2020/12/21 04:18:12;;;;;;;37.35;16.48;;;5.60;99.90;;;;;;5013495;28;20026;-91
2020/12/21 04:20:37;;;;;;;32.47;17.02;;;5.60;99.90;;;;;;5012800;28;20117;-90
2020/12/21 04:23:03;;;;;;;32.22;15.65;;;5.70;99.90;;;;;;5013312;28;20096;-89
2020/12/21 04:25:29;;;;;;;31.48;16.48;;;5.60;99.90;;;;;;5012612;28;20018;-85
2020/12/21 04:27:55;;;;;;;29.48;15.90;;;5.60;99.90;;;;;;4994439;28;20018;-85
2020/12/21 04:30:21;;;;;;;34.00;16.25;;;5.60;99.90;;;;;;4994160;28;20018;-84
2020/12/21 04:32:47;;;;;;;27.27;16.65;;;5.50;99.90;;;;;;4996185;28;20021;-83
2020/12/21 04:35:14;;;;;;;32.70;17.05;;;5.40;99.90;;;;;;5011106;28;20080;-89
2020/12/21 04:37:40;;;;;;;30.13;16.17;;;5.40;99.90;;;;;;5011090;28;20030;-86
2020/12/21 04:40:06;;;;;;;25.88;14.55;;;5.40;99.90;;;;;;5011287;28;20108;-90
2020/12/21 04:42:31;;;;;;;30.40;15.82;;;5.20;99.90;;;;;;5012740;28;20088;-89
2020/12/21 04:45:00;;;;;;;29.38;16.52;;;5.20;99.90;;;;;;5011712;28;20100;-87
2020/12/21 04:47:26;;;;;;;27.80;15.48;;;5.20;99.90;;;;;;5010985;28;20497;-85
2020/12/21 04:49:58;;;;;;;29.27;15.50;;;5.00;99.90;;;;;;5010295;28;20037;-85
2020/12/21 04:52:30;;;;;;;30.40;15.75;;;5.10;99.90;;;;;;5011604;28;20029;-86
2020/12/21 04:54:55;;;;;;;28.20;15.02;;;5.10;99.90;;;;;;5013909;28;20170;-88
2020/12/21 04:57:21;;;;;;;25.17;15.30;;;5.20;99.90;;;;;;5014195;28;20271;-84
2020/12/21 04:59:56;;;;;;;31.38;15.82;;;4.90;99.90;;;;;;5014687;28;20490;-89
2020/12/21 05:02:22;;;;;;;30.13;15.38;;;4.90;99.90;;;;;;5015917;28;20084;-90
2020/12/21 05:04:52;;;;;;;28.23;14.05;;;4.90;99.90;;;;;;5015111;28;20098;-90
2020/12/21 05:07:28;;;;;;;32.08;16.27;;;4.90;99.90;;;;;;5014416;28;20053;-90
2020/12/21 05:10:10;;;;;;;28.70;15.07;;;4.90;99.90;;;;;;5014752;28;20040;-91
2020/12/21 05:16:24;;;;;;;31.38;16.15;;;4.90;99.90;;;;;;5016232;28;20037;-90
2020/12/21 05:18:50;;;;;;;32.00;15.07;;;4.90;99.90;;;;;;5015239;28;20034;-83
2020/12/21 05:21:15;;;;;;;30.60;15.57;;;4.90;99.90;;;;;;5015891;28;20080;-86
2020/12/21 05:23:55;;;;;;;27.05;14.65;;;4.90;99.90;;;;;;5015723;28;20390;-91
2020/12/21 05:26:27;;;;;;;28.25;13.93;;;4.90;99.90;;;;;;5015934;28;20413;-90
2020/12/21 05:28:53;;;;;;;25.15;14.77;;;4.90;99.90;;;;;;5014674;28;20046;-89
2020/12/21 05:31:59;;;;;;;28.67;15.07;;;5.00;99.90;;;;;;5014533;28;20088;-89
2020/12/21 05:34:28;;;;;;;27.38;15.02;;;5.00;99.90;;;;;;5014399;28;20088;-89
2020/12/21 05:36:56;;;;;;;23.60;13.13;;;4.90;99.90;;;;;;5014113;28;20037;-85
2020/12/21 05:39:25;;;;;;;23.27;13.65;;;4.90;99.90;;;;;;5014463;28;20034;-87
2020/12/21 05:42:15;;;;;;;28.70;14.35;;;5.00;99.90;;;;;;5013588;28;20033;-89
2020/12/21 05:44:58;;;;;;;27.83;14.50;;;5.20;99.90;;;;;;5014354;28;20034;-86
2020/12/21 05:47:25;;;;;;;25.13;13.32;;;5.20;99.90;;;;;;5014237;28;20092;-88
2020/12/21 05:49:53;;;;;;;26.73;14.27;;;4.90;99.90;;;;;;5013789;28;20034;-91
2020/12/21 05:52:29;;;;;;;28.05;14.20;;;5.10;99.90;;;;;;5357885;23;20091;-86
2020/12/21 05:54:55;;;;;;;26.95;14.95;;;5.10;99.90;;;;;;5015209;28;20033;-87
2020/12/21 05:57:23;;;;;;;27.30;14.23;;;5.20;99.90;;;;;;4998314;28;20037;-90
2020/12/21 05:59:49;;;;;;;22.90;13.80;;;5.00;99.90;;;;;;4998274;28;20129;-88
2020/12/21 06:02:18;;;;;;;27.27;14.00;;;4.80;99.90;;;;;;5015289;28;20026;-88
2020/12/21 06:04:49;;;;;;;25.63;12.98;;;4.90;99.90;;;;;;4996004;28;20597;-85
2020/12/21 06:07:35;;;;;;;26.63;13.60;;;4.70;99.90;;;;;;4996998;28;20037;-87
2020/12/21 06:10:04;;;;;;;27.52;14.07;;;5.00;99.90;;;;;;5014504;28;20381;-87
2020/12/21 06:12:42;;;;;;;29.00;14.70;;;5.10;99.90;;;;;;4995999;28;20030;-84
2020/12/21 06:15:11;;;;;;;29.05;14.43;;;5.20;99.90;;;;;;4997070;28;20033;-86
2020/12/21 06:17:37;;;;;;;26.52;13.90;;;5.30;99.90;;;;;;4996551;28;20037;-87
2020/12/21 06:20:08;;;;;;;69.03;33.28;;;5.90;99.90;;;;;;5014221;28;20038;-87
2020/12/21 06:22:38;;;;;;;33.67;17.92;;;6.80;99.90;;;;;;4996640;28;20317;-86
2020/12/21 06:25:05;;;;;;;28.25;14.93;;;5.90;99.90;;;;;;4994384;28;20036;-86
2020/12/21 06:27:41;;;;;;;23.25;13.35;;;5.30;99.90;;;;;;5033935;28;20022;-89
2020/12/21 06:30:10;;;;;;;25.02;14.43;;;4.90;99.90;;;;;;5034408;28;20036;-87
2020/12/21 06:32:37;;;;;;;21.45;14.00;;;4.70;99.90;;;;;;5025713;28;20025;-87
2020/12/21 06:35:16;;;;;;;25.45;14.13;;;4.80;99.90;;;;;;5053788;28;20032;-87
2020/12/21 06:40:29;;;;;;;;;;;4.70;99.90;;;;;;5753999;22;21164;-88
2020/12/21 06:42:54;;;;;;;29.23;14.30;;;4.60;99.90;;;;;;4996879;28;19909;-89
2020/12/21 06:45:34;;;;;;;33.97;15.07;;;4.60;99.90;;;;;;4996870;28;20028;-92
2020/12/21 06:48:03;;;;;;;30.25;14.77;;;4.70;99.90;;;;;;4997087;28;20025;-90
2020/12/21 06:50:29;;;;;;;28.88;13.50;;;4.80;99.90;;;;;;4996593;28;20368;-89
2020/12/21 06:53:45;;;;;;;27.63;15.77;;;4.80;99.90;;;;;;4994553;28;20525;-87
2020/12/21 06:56:48;;;;;;;30.02;15.63;;;5.30;99.90;;;;;;4996083;28;20038;-86
2020/12/21 06:59:30;;;;;;;67.18;33.75;;;5.80;99.90;;;;;;5002990;28;20065;-86
2020/12/21 07:01:57;;;;;;;50.45;27.00;;;6.30;99.90;;;;;;5003443;28;20048;-88
2020/12/21 07:04:24;;;;;;;25.55;14.60;;;5.70;99.90;;;;;;5012321;28;20048;-85
2020/12/21 07:06:51;;;;;;;26.80;14.73;;;5.30;99.90;;;;;;5008657;28;20076;-86
2020/12/21 07:10:01;;;;;;;28.95;16.60;;;5.00;99.90;;;;;;5016119;28;20416;-87
2020/12/21 07:12:27;;;;;;;26.97;13.77;;;4.90;99.90;;;;;;4966342;28;20057;-90
2020/12/21 07:15:14;;;;;;;24.05;13.68;;;4.90;99.90;;;;;;5011750;28;20049;-88
2020/12/21 07:18:02;;;;;;;22.90;14.13;;;4.70;99.90;;;;;;5012360;28;20036;-89
2020/12/21 07:23:50;;;;;;;29.20;13.82;;;4.90;99.90;;;;;;5012706;28;20091;-89
2020/12/21 07:26:16;;;;;;;31.05;16.20;;;5.00;99.90;;;;;;5458688;23;20074;-89
2020/12/21 07:28:55;;;;;;;25.60;14.57;;;4.90;99.90;;;;;;4976125;28;20022;-88
2020/12/21 07:31:21;;;;;;;23.58;14.10;;;4.80;99.90;;;;;;4976140;28;20037;-87
2020/12/21 07:33:51;;;;;;;30.90;14.98;;;4.90;99.90;;;;;;4993799;28;20014;-87
2020/12/21 07:36:45;;;;;;;23.60;14.55;;;4.90;99.90;;;;;;4989563;28;20053;-89
2020/12/21 07:39:17;;;;;;;21.10;12.40;;;4.80;99.90;;;;;;4993102;28;20035;-87
2020/12/21 07:42:04;;;;;;;;;;;;;;;;;;;;;
2020/12/21 07:44:58;;;;;;;27.85;13.90;;;5.00;99.90;;;;;;4992819;28;20018;-88
2020/12/21 08:15:43;;;;;;;24.88;13.43;;;5.20;99.90;;;;;;5354979;23;20049;-87
2020/12/21 08:18:11;;;;;;;24.77;13.82;;;5.00;99.90;;;;;;4994620;28;20363;-85
2020/12/21 08:23:57;;;;;;;25.70;14.07;;;5.30;99.90;;;;;;5013810;28;20049;-88
2020/12/21 08:26:26;;;;;;;25.77;13.52;;;5.30;99.90;;;;;;4997444;28;20092;-90
2020/12/21 08:29:29;;;;;;;28.38;13.55;;;5.50;99.90;;;;;;4998360;28;20109;-88
2020/12/21 08:31:57;;;;;;;27.38;14.50;;;5.60;99.90;;;;;;5013329;28;20431;-87
2020/12/21 08:34:23;;;;;;;26.30;13.23;;;5.60;99.90;;;;;;5018822;28;20072;-92
2020/12/21 08:36:56;;;;;;;28.15;12.85;;;5.70;99.90;;;;;;5036446;28;20037;-88
2020/12/21 08:39:23;;;;;;;22.98;13.90;;;5.30;99.90;;;;;;5001728;28;20037;-85
2020/12/21 08:41:59;;;;;;;22.55;13.25;;;5.30;99.90;;;;;;4999091;28;20033;-89
2020/12/21 08:44:29;;;;;;;24.75;13.80;;;5.40;99.90;;;;;;4998250;28;20033;-88
2020/12/21 08:47:20;;;;;;;22.92;14.07;;;5.60;99.90;;;;;;5027834;23;20512;-88
2020/12/21 08:50:21;;;;;;;25.45;13.45;;;5.80;99.90;;;;;;5000639;28;20017;-87
2020/12/21 08:55:34;;;;;;;21.70;12.32;;;5.60;99.90;;;;;;5035653;28;20031;-87
2020/12/21 08:58:06;;;;;;;22.80;12.20;;;5.70;99.90;;;;;;5018189;28;20021;-85
2020/12/21 09:08:56;;;;;;;19.77;12.57;;;5.60;99.90;;;;;;5631445;23;20046;-87
2020/12/21 09:15:44;;;;;;;25.77;13.52;;;5.90;99.90;;;;;;4915342;28;20031;-87
2020/12/21 09:18:50;;;;;;;27.13;14.20;;;6.20;99.90;;;;;;4999733;28;20073;-89
2020/12/21 09:33:12;;;;;;;24.20;14.13;;;6.60;99.90;;;;;;5755898;23;20115;-86
2020/12/21 09:35:37;;;;;;;26.88;13.23;;;6.80;99.90;;;;;;4997377;28;20030;-89
2020/12/21 09:38:03;;;;;;;21.42;13.40;;;6.90;99.90;;;;;;4997797;28;20559;-87
2020/12/21 10:05:23;;;;;;;29.40;14.95;;;7.60;99.90;;;;;;5637299;23;20042;-90
2020/12/21 10:11:30;;;;;;;28.15;15.75;;;7.70;99.90;;;;;;5220955;23;20409;-87
2020/12/21 10:14:11;;;;;;;23.33;13.45;;;8.00;99.90;;;;;;4975705;28;20034;-87
2020/12/21 10:37:37;;;;;;;24.38;14.73;;;8.50;99.90;;;;;;4996933;23;20129;-89
2020/12/21 10:40:19;;;;;;;26.52;14.23;;;8.40;99.90;;;;;;4997496;28;20380;-92
2020/12/21 10:54:23;;;;;;;22.50;13.30;;;7.90;99.90;;;;;;5005813;28;20039;-92
2020/12/21 11:05:44;;;;;;;23.48;12.95;;;8.20;99.90;;;;;;5011416;28;20053;-89
2020/12/21 11:08:17;;;;;;;24.02;13.93;;;8.30;99.90;;;;;;5023061;28;20048;-89
2020/12/21 11:10:47;;;;;;;28.75;13.43;;;8.30;99.90;;;;;;4975959;28;20378;-88
2020/12/21 11:13:12;;;;;;;25.60;13.67;;;8.40;99.90;;;;;;4977025;28;20117;-85
2020/12/21 11:15:38;;;;;;;20.55;13.10;;;8.40;99.90;;;;;;4978600;28;20085;-88
2020/12/21 11:18:10;;;;;;;24.42;12.95;;;8.40;99.90;;;;;;4977283;28;20030;-90
2020/12/21 11:20:45;;;;;;;22.38;13.10;;;8.40;99.90;;;;;;4994706;28;20037;-89
2020/12/21 11:23:11;;;;;;;26.00;14.10;;;8.40;99.90;;;;;;4977264;28;20022;-91
2020/12/21 11:25:40;;;;;;;25.00;13.23;;;8.40;99.90;;;;;;4975421;28;20037;-86
2020/12/21 11:28:07;;;;;;;24.33;15.10;;;8.10;99.90;;;;;;4973496;28;20073;-87
2020/12/21 11:30:33;;;;;;;21.95;13.07;;;7.90;99.90;;;;;;4981570;28;20037;-87
2020/12/21 11:33:02;;;;;;;22.50;12.73;;;7.90;99.90;;;;;;4982165;28;20023;-86
2020/12/21 11:35:34;;;;;;;22.33;13.32;;;8.00;99.90;;;;;;4961419;28;20031;-90
2020/12/21 11:38:15;;;;;;;20.83;12.35;;;7.90;99.90;;;;;;4989477;28;20053;-90
2020/12/21 11:49:45;;;;;;;23.55;13.85;;;8.10;99.90;;;;;;5899272;23;20053;-87
2020/12/21 11:52:14;;;;;;;26.08;12.38;;;8.20;99.90;;;;;;4994706;28;20030;-89
2020/12/21 11:54:42;;;;;;;22.60;12.13;;;8.20;99.90;;;;;;4993796;28;20041;-88
2020/12/21 11:57:08;;;;;;;24.63;12.70;;;8.10;99.90;;;;;;4994286;28;20161;-93
2020/12/21 11:59:34;;;;;;;19.88;12.52;;;8.10;99.90;;;;;;4993829;28;20120;-89
2020/12/21 12:02:03;;;;;;;23.73;13.40;;;8.00;99.90;;;;;;4993891;28;20500;-87
2020/12/21 12:04:29;;;;;;;23.25;13.95;;;8.00;99.90;;;;;;4997097;28;20030;-87
2020/12/21 12:06:55;;;;;;;25.40;13.65;;;8.00;99.90;;;;;;4998624;28;20120;-90
2020/12/21 12:10:22;;;;;;;;;;;;;;;;;;;;;
2020/12/21 12:18:27;;;;;;;26.08;15.48;;;7.90;99.90;;;;;;5470685;22;20062;-89
2020/12/21 12:22:07;;;;;;;29.23;16.17;;;7.80;99.90;;;;;;4982901;28;20073;-88
2020/12/21 12:24:16;;;;;;;29.42;16.33;;;7.80;99.90;;;;;;4919926;28;20035;-91
2020/12/21 12:42:01;;;;;;;28.75;16.75;;;8.30;99.90;;;;;;5023033;23;20065;-87
2020/12/21 12:45:02;;;;;;;27.90;15.27;;;8.40;99.90;;;;;;5015814;28;20236;-88
2020/12/21 12:47:28;;;;;;;25.90;14.15;;;8.40;99.90;;;;;;4985834;28;20030;-86
2020/12/21 12:49:54;;;;;;;25.92;15.10;;;8.50;99.90;;;;;;5014724;28;20381;-87
2020/12/21 12:52:22;;;;;;;21.52;14.45;;;8.50;99.90;;;;;;5015217;28;20033;-84
2020/12/21 12:55:01;;;;;;;27.08;14.57;;;8.40;99.90;;;;;;5015389;28;20021;-84
2020/12/21 12:57:41;;;;;;;20.58;12.65;;;8.40;99.90;;;;;;4997560;28;20478;-86
2020/12/21 13:00:10;;;;;;;23.27;13.35;;;8.50;99.90;;;;;;4998021;28;20559;-87
2020/12/21 13:02:43;;;;;;;20.98;12.70;;;8.60;99.90;;;;;;4996908;28;20405;-85
2020/12/21 13:05:09;;;;;;;26.08;13.93;;;8.60;99.90;;;;;;4997139;28;20025;-88
2020/12/21 13:07:38;;;;;;;23.70;14.32;;;8.50;99.90;;;;;;4997401;28;20373;-87
2020/12/21 13:10:07;;;;;;;26.40;15.85;;;8.50;99.90;;;;;;5015507;28;20025;-84
2020/12/21 13:12:33;;;;;;;24.92;14.60;;;8.40;99.90;;;;;;4997212;28;20032;-84
2020/12/21 13:14:59;;;;;;;23.25;15.10;;;8.40;99.90;;;;;;5014174;28;20113;-84
2020/12/21 13:17:30;;;;;;;25.40;14.57;;;8.30;99.90;;;;;;5013808;28;20018;-87
2020/12/21 13:19:56;;;;;;;23.05;13.55;;;8.40;99.90;;;;;;4996627;28;20121;-84
2020/12/21 13:22:22;;;;;;;24.25;13.93;;;8.40;99.90;;;;;;4996305;28;20493;-86
2020/12/21 13:24:47;;;;;;;28.67;14.48;;;8.40;99.90;;;;;;4996793;28;20037;-83
2020/12/21 13:27:15;;;;;;;27.75;15.40;;;8.40;99.90;;;;;;4996014;28;20026;-82
2020/12/21 13:29:43;;;;;;;24.38;13.95;;;8.40;99.90;;;;;;4998730;28;20054;-85
2020/12/21 13:32:09;;;;;;;27.40;15.00;;;8.40;99.90;;;;;;4976205;28;20034;-85
2020/12/21 13:34:35;;;;;;;23.73;13.60;;;8.40;99.90;;;;;;4980423;28;20026;-85
2020/12/21 13:37:01;;;;;;;26.85;14.88;;;8.50;99.90;;;;;;4998886;28;20022;-86
2020/12/21 13:39:38;;;;;;;24.83;14.68;;;8.50;99.90;;;;;;4968984;28;20041;-88
2020/12/21 13:42:03;;;;;;;26.20;14.55;;;8.50;99.90;;;;;;4995540;28;20506;-92
2020/12/21 13:44:30;;;;;;;21.45;13.10;;;8.60;99.90;;;;;;4968938;28;20033;-89
2020/12/21 13:47:02;;;;;;;24.83;14.63;;;8.60;99.90;;;;;;4964380;28;20035;-88
2020/12/21 13:49:28;;;;;;;24.85;13.43;;;8.60;99.90;;;;;;4991715;28;20427;-88
2020/12/21 13:52:03;;;;;;;24.05;14.07;;;8.50;99.90;;;;;;4966036;28;20561;-88
2020/12/21 13:54:29;;;;;;;28.38;14.57;;;8.40;99.90;;;;;;4985425;28;20022;-82
2020/12/21 13:56:54;;;;;;;27.20;15.27;;;8.40;99.90;;;;;;4963531;28;20072;-86
2020/12/21 13:59:20;;;;;;;25.08;13.85;;;8.40;99.90;;;;;;4962125;28;20092;-85
2020/12/21 14:01:46;;;;;;;21.65;13.07;;;8.40;99.90;;;;;;4980955;28;20193;-86
2020/12/21 14:04:12;;;;;;;21.15;13.73;;;8.30;99.90;;;;;;4967843;28;20018;-84
2020/12/21 14:06:37;;;;;;;22.95;13.65;;;8.30;99.90;;;;;;4981327;28;20486;-84
2020/12/21 14:09:04;;;;;;;24.88;13.07;;;8.30;99.90;;;;;;4966572;28;20022;-84
2020/12/21 14:11:31;;;;;;;20.15;12.60;;;8.30;99.90;;;;;;4981208;28;20038;-82
2020/12/21 14:13:59;;;;;;;18.58;12.10;;;8.20;99.90;;;;;;4959683;28;20081;-88
2020/12/21 14:16:26;;;;;;;22.00;12.13;;;8.30;99.90;;;;;;4968763;28;20089;-84
2020/12/21 14:19:06;;;;;;;20.90;11.88;;;8.30;99.90;;;;;;4971843;28;20433;-88
2020/12/21 14:21:40;;;;;;;18.58;11.65;;;8.30;99.90;;;;;;4987651;28;20043;-90
2020/12/21 14:24:06;;;;;;;18.73;10.35;;;8.30;99.90;;;;;;4976764;28;20117;-86
2020/12/21 14:26:33;;;;;;;20.15;12.77;;;8.10;99.90;;;;;;4992644;28;20101;-84
2020/12/21 14:29:00;;;;;;;20.13;11.35;;;8.10;99.90;;;;;;4976074;28;20026;-83
2020/12/21 14:31:33;;;;;;;21.17;11.80;;;8.10;99.90;;;;;;4976004;28;20019;-84
2020/12/21 14:33:59;;;;;;;20.65;11.90;;;8.00;99.90;;;;;;4969472;28;20031;-85
2020/12/21 14:36:29;;;;;;;20.23;11.20;;;8.00;99.90;;;;;;4982297;28;20041;-87
2020/12/21 14:38:58;;;;;;;19.73;11.10;;;8.60;99.90;;;;;;4983991;28;20038;-86
2020/12/21 14:41:24;;;;;;;18.92;11.13;;;8.70;99.90;;;;;;4976289;28;20057;-84
2020/12/21 14:43:50;;;;;;;23.33;10.85;;;8.90;99.90;;;;;;4960660;28;20023;-87
2020/12/21 14:46:23;;;;;;;19.13;11.13;;;9.40;99.90;;;;;;4937572;29;20039;-87
2020/12/21 14:49:07;;;;;;;19.83;10.65;;;9.90;99.90;;;;;;4953193;28;20126;-89
2020/12/21 14:51:33;;;;;;;22.13;12.43;;;9.80;99.90;;;;;;4970193;28;20031;-87
2020/12/21 14:54:09;;;;;;;33.15;13.63;;;9.10;99.90;;;;;;4960106;28;20034;-90
2020/12/21 14:56:39;;;;;;;23.00;11.73;;;8.50;99.90;;;;;;4976500;28;20409;-85
2020/12/21 14:59:09;;;;;;;25.40;12.50;;;8.30;99.90;;;;;;4977516;28;20022;-87
2020/12/21 15:01:41;;;;;;;16.98;10.80;;;8.30;99.90;;;;;;4976996;28;20038;-90
2020/12/21 15:04:07;;;;;;;19.38;10.85;;;8.20;99.90;;;;;;4958291;28;20030;-90
2020/12/21 15:06:35;;;;;;;20.25;10.80;;;8.10;99.90;;;;;;4974024;28;20371;-89
2020/12/21 15:09:01;;;;;;;16.98;10.77;;;8.10;99.90;;;;;;4955885;28;20036;-89
2020/12/21 15:11:37;;;;;;;19.20;11.68;;;8.10;99.90;;;;;;4963433;28;20378;-84
2020/12/21 15:14:06;;;;;;;20.08;11.15;;;8.00;99.90;;;;;;4992962;28;20374;-84
2020/12/21 15:16:54;;;;;;;19.48;12.63;;;8.00;99.90;;;;;;4975158;28;20425;-89
2020/12/21 15:19:26;;;;;;;23.73;12.65;;;7.90;99.90;;;;;;4975070;28;20389;-84
2020/12/21 15:22:19;;;;;;;24.35;12.50;;;7.80;99.90;;;;;;4976659;28;20035;-87
2020/12/21 15:25:07;;;;;;;20.33;12.02;;;7.90;99.90;;;;;;4955344;28;20023;-85
2020/12/21 15:27:45;;;;;;;24.02;12.43;;;7.80;99.90;;;;;;4955145;28;20029;-84
2020/12/21 15:30:17;;;;;;;23.15;12.75;;;7.90;99.90;;;;;;4955737;28;20062;-85
2020/12/21 15:32:42;;;;;;;25.90;12.38;;;8.00;99.90;;;;;;4955765;28;20431;-87
2020/12/21 15:35:10;;;;;;;22.67;12.10;;;7.90;99.90;;;;;;4973052;28;20540;-86
2020/12/21 15:37:36;;;;;;;22.17;12.05;;;7.90;99.90;;;;;;4955331;28;20023;-86
2020/12/21 15:40:03;;;;;;;19.95;11.82;;;8.00;99.90;;;;;;4956423;28;20046;-86
2020/12/21 15:42:31;;;;;;;20.98;12.02;;;8.00;99.90;;;;;;4975239;28;20076;-85
2020/12/21 15:44:57;;;;;;;21.27;11.68;;;8.00;99.90;;;;;;4989717;28;20417;-87
2020/12/21 15:47:23;;;;;;;20.15;11.63;;;7.90;99.90;;;;;;4994047;28;20018;-86
2020/12/21 15:50:01;;;;;;;20.27;11.40;;;8.30;99.90;;;;;;5011439;28;20026;-89
2020/12/21 15:52:32;;;;;;;22.30;11.57;;;8.40;99.90;;;;;;4984198;28;20388;-89